Mass Start - EYOC 2012 Lac de Vassivière (87) - E

Date : 01/07/2012

Place Nom Licence Catégorie Club Temps CN à J-60 Points Différence Nouveau CN
1 GENNARO Mathis 22689 H12 3811RA 0:14:40 3996 4403 +407 4443
2 HABERKORN Guilhem 11395 H12 2105BO 0:14:49 3261 4359 +1098 3697
3 LEDUC Paul 21124 H12 1905LI 0:15:40 3399 4122 +723 3811
4 DAUPHIN Hugo 20296 H12 4708AQ 0:15:43 2961 4109 +1148 3317
5 LAVILLE Adrien 18412 H12 1307PR 0:16:22 3109 3946 +837 3542
6 VUITTON Julien 18843 H12 6911RA 0:16:24 3990 3938 -52 4048
7 MAZY Pierre-louis 21329 H12 5907NO 0:17:57 1595 3598 +2003 2452
8 PANNIER Axel 19099 H12 7807IF 0:17:59 2617 3591 +974 3226
9 BASSET Basile 23577 H10 6911RA 0:18:23 2245 3513 +1268 2588
10 DUDOIGNON Marine 17953 D12 2604RA 0:18:31 2395 3488 +1093 2825
11 RADONDY Thomas 25199 H10 5907NO 0:18:51 2434 3426 +992 2538
12 FERRAND Elise 25011 D12 4203RA 0:18:52 2065 3423 +1358 2763
13 DELENNE Tommy 18249 H12 1307PR 0:18:53 2894 3420 +526 3169
14 CAVARROC Amandine 19656 D12 1104LR 0:18:56 2703 3411 +708 2997
15 LEYZAT Valentin 25902 H10 8702LI 0:20:11 1734 3200 +1466 1842
16 LAMOR Louis 23246 H12 1705PC 0:20:23 1995 3168 +1173 2400
17 DANNECKER Victor 21442 H12 3913FC 0:20:30 2082 3150 +1068 2241
18 DANNECKER Elliot 21441 H10 3913FC 0:22:25 1722 2881 +1159 1833
19 MARLIAC Solène 24984 D12 4203RA 0:22:51 536 2826 +2290 1875
20 DION Laurent 20514 H12 4708AQ 0:22:57 2131 2814 +683 2368
21 GENIN Claire 22365 D12 3318AQ 0:24:06 1970 2680 +710 2025
22 DREANO Valentin 25106 H12 9105IF 0:26:59 2056 2393 +337 2259
23 DROIN Aurelie 21210 D12 4201RA 0:27:06 1601 2383 +782 2131
24 DA ROCHA Inès 25977 D12 3318AQ 0:27:08 0 (2000) 2380 1404
25 PAULY Lilou 21041 D12 1705PC 0:28:09 2407 2294 -113 2516
26 PICHARD Romain 21267 H10 6911RA 0:32:28 1260 1989 +729 1853
27 PERRIN Simon 18119 H10 4201RA 0:32:40 1716 1977 +261 1994
28 CLAVEL Maella 22805 D12 5907NO 0:32:46 1348 1971 +623 1421
29 FRANTZ Francoise 6886 D65 2904BR 0:32:49 4054 1968 -2086 4054
30 ROLLET Marie-Madeleine 2413 D65 5415LO 0:34:00 2283 1899 -384 2747
31 GROSJEAN A-Marie 12059 D70 6913RA 0:34:34 2838 1868 -970 3057
32 ANGLADE Léane 22256 D12 5604BR 0:37:07 1729 1740 +11 1743
33 DENIS Martine 12377 D65 9307IF 0:39:31 2959 1634 -1325 2986
34 KIEFFER Mireille 2680 D65 2101BO 0:39:38 2734 1629 -1105 2836
35 LUDEWIG-JAMES Carol 15894 D70 5907NO 0:41:31 2406 1556 -850 2388
36 TREMOULET Theophile 20233 H10 4601MP 0:45:40 1634 1414 -220 1947
37 PAULY Titouan 22715 H10 1705PC 0:51:50 1590 1246 -344 1765
38 ARNAULT Gaby 24586 H10 7905PC 0:51:53 (2000) 1245 1196
39 LAVAL Philippe 23070 H10 8106MP 0:52:14 758 1236 +478 1314
40 LAVAL Guillaume 23071 H10 8106MP 0:52:14 0 (2000) 1236 688
PIVAUDRAN Gabriel 24926 H10 4601MP pm 1440 0 1515
LAURENT Alexis 17084 H10 3705CE pm 1362 0 1453
LAVAL Colette 25598 D60 8106MP pm 771 0 836